sensor_id;sensor_type;location;lat;lon;timestamp;temperature;humidity
9847;DHT22;68671;50.084;8.794;2023-05-20T00:02:19;16.10;78.60
9847;DHT22;68671;50.084;8.794;2023-05-20T00:04:46;16.10;78.80
9847;DHT22;68671;50.084;8.794;2023-05-20T00:07:13;16.10;79.00
9847;DHT22;68671;50.084;8.794;2023-05-20T00:09:40;16.00;79.20
9847;DHT22;68671;50.084;8.794;2023-05-20T00:12:08;15.90;79.50
9847;DHT22;68671;50.084;8.794;2023-05-20T00:14:35;15.90;79.80
9847;DHT22;68671;50.084;8.794;2023-05-20T00:17:02;15.90;80.20
9847;DHT22;68671;50.084;8.794;2023-05-20T00:19:30;15.90;80.40
9847;DHT22;68671;50.084;8.794;2023-05-20T00:21:57;15.90;80.60
9847;DHT22;68671;50.084;8.794;2023-05-20T00:24:24;15.80;80.90
9847;DHT22;68671;50.084;8.794;2023-05-20T00:26:51;15.80;81.30
9847;DHT22;68671;50.084;8.794;2023-05-20T00:29:20;15.70;81.50
9847;DHT22;68671;50.084;8.794;2023-05-20T00:31:47;15.70;82.00
9847;DHT22;68671;50.084;8.794;2023-05-20T00:34:14;15.70;82.30
9847;DHT22;68671;50.084;8.794;2023-05-20T00:36:41;15.60;82.40
9847;DHT22;68671;50.084;8.794;2023-05-20T00:39:08;15.60;82.70
9847;DHT22;68671;50.084;8.794;2023-05-20T00:41:34;15.60;83.00
9847;DHT22;68671;50.084;8.794;2023-05-20T00:44:01;15.60;83.30
9847;DHT22;68671;50.084;8.794;2023-05-20T00:46:30;15.50;83.60
9847;DHT22;68671;50.084;8.794;2023-05-20T00:48:57;15.50;83.90
9847;DHT22;68671;50.084;8.794;2023-05-20T00:51:24;15.50;84.30
9847;DHT22;68671;50.084;8.794;2023-05-20T00:53:52;15.40;84.70
9847;DHT22;68671;50.084;8.794;2023-05-20T00:56:19;15.40;85.10
9847;DHT22;68671;50.084;8.794;2023-05-20T00:58:47;15.40;85.40
9847;DHT22;68671;50.084;8.794;2023-05-20T01:01:14;15.40;85.60
9847;DHT22;68671;50.084;8.794;2023-05-20T01:03:42;15.50;86.10
9847;DHT22;68671;50.084;8.794;2023-05-20T01:06:09;15.30;86.30
9847;DHT22;68671;50.084;8.794;2023-05-20T01:08:36;15.20;86.60
9847;DHT22;68671;50.084;8.794;2023-05-20T01:11:10;15.30;87.10
9847;DHT22;68671;50.084;8.794;2023-05-20T01:13:40;15.20;87.40
9847;DHT22;68671;50.084;8.794;2023-05-20T01:16:09;15.20;87.80
9847;DHT22;68671;50.084;8.794;2023-05-20T01:18:38;15.20;87.90
9847;DHT22;68671;50.084;8.794;2023-05-20T01:21:10;15.20;88.20
9847;DHT22;68671;50.084;8.794;2023-05-20T01:23:40;15.10;88.50
9847;DHT22;68671;50.084;8.794;2023-05-20T01:26:08;15.10;89.10
9847;DHT22;68671;50.084;8.794;2023-05-20T01:28:38;15.10;89.50
9847;DHT22;68671;50.084;8.794;2023-05-20T01:31:10;15.00;89.90
9847;DHT22;68671;50.084;8.794;2023-05-20T01:33:40;15.00;90.10
9847;DHT22;68671;50.084;8.794;2023-05-20T01:36:08;15.00;90.30
9847;DHT22;68671;50.084;8.794;2023-05-20T01:38:35;15.00;90.40
9847;DHT22;68671;50.084;8.794;2023-05-20T01:41:06;14.90;90.50
9847;DHT22;68671;50.084;8.794;2023-05-20T01:43:35;15.00;90.70
9847;DHT22;68671;50.084;8.794;2023-05-20T01:46:05;14.90;91.20
9847;DHT22;68671;50.084;8.794;2023-05-20T01:48:32;14.80;91.00
9847;DHT22;68671;50.084;8.794;2023-05-20T01:50:59;14.80;91.20
9847;DHT22;68671;50.084;8.794;2023-05-20T01:53:26;14.80;91.30
9847;DHT22;68671;50.084;8.794;2023-05-20T01:55:52;14.80;91.40
9847;DHT22;68671;50.084;8.794;2023-05-20T01:58:21;14.80;91.60
9847;DHT22;68671;50.084;8.794;2023-05-20T02:00:48;14.70;91.70
9847;DHT22;68671;50.084;8.794;2023-05-20T02:03:15;14.70;91.90
9847;DHT22;68671;50.084;8.794;2023-05-20T02:05:42;14.70;92.10
9847;DHT22;68671;50.084;8.794;2023-05-20T02:08:10;14.70;92.30
9847;DHT22;68671;50.084;8.794;2023-05-20T02:10:37;14.60;92.30
9847;DHT22;68671;50.084;8.794;2023-05-20T02:13:03;14.60;92.50
9847;DHT22;68671;50.084;8.794;2023-05-20T02:15:32;14.50;92.70
9847;DHT22;68671;50.084;8.794;2023-05-20T02:17:59;14.50;92.90
9847;DHT22;68671;50.084;8.794;2023-05-20T02:20:26;14.40;93.10
9847;DHT22;68671;50.084;8.794;2023-05-20T02:22:53;14.40;93.30
9847;DHT22;68671;50.084;8.794;2023-05-20T02:25:20;14.30;93.50
9847;DHT22;68671;50.084;8.794;2023-05-20T02:27:47;14.30;93.70
9847;DHT22;68671;50.084;8.794;2023-05-20T02:30:14;14.30;93.90
9847;DHT22;68671;50.084;8.794;2023-05-20T02:32:43;14.20;94.10
9847;DHT22;68671;50.084;8.794;2023-05-20T02:35:10;14.20;94.30
9847;DHT22;68671;50.084;8.794;2023-05-20T02:37:37;14.20;94.40
9847;DHT22;68671;50.084;8.794;2023-05-20T02:40:05;14.20;94.60
9847;DHT22;68671;50.084;8.794;2023-05-20T02:42:33;14.20;94.80
9847;DHT22;68671;50.084;8.794;2023-05-20T02:45:00;14.10;94.90
9847;DHT22;68671;50.084;8.794;2023-05-20T02:47:28;14.10;95.10
9847;DHT22;68671;50.084;8.794;2023-05-20T02:49:56;14.10;95.30
9847;DHT22;68671;50.084;8.794;2023-05-20T02:52:23;14.10;95.40
9847;DHT22;68671;50.084;8.794;2023-05-20T02:54:50;14.10;95.70
9847;DHT22;68671;50.084;8.794;2023-05-20T02:57:17;14.00;95.80
9847;DHT22;68671;50.084;8.794;2023-05-20T02:59:44;14.00;96.00
9847;DHT22;68671;50.084;8.794;2023-05-20T03:02:11;14.00;96.20
9847;DHT22;68671;50.084;8.794;2023-05-20T03:04:38;14.00;96.70
9847;DHT22;68671;50.084;8.794;2023-05-20T03:07:06;14.00;96.40
9847;DHT22;68671;50.084;8.794;2023-05-20T03:09:34;13.90;96.70
9847;DHT22;68671;50.084;8.794;2023-05-20T03:12:01;13.90;96.90
9847;DHT22;68671;50.084;8.794;2023-05-20T03:14:28;13.90;97.10
9847;DHT22;68671;50.084;8.794;2023-05-20T03:16:55;13.90;97.30
9847;DHT22;68671;50.084;8.794;2023-05-20T03:19:24;13.80;97.60
9847;DHT22;68671;50.084;8.794;2023-05-20T03:21:51;13.80;97.80
9847;DHT22;68671;50.084;8.794;2023-05-20T03:24:19;13.80;98.00
9847;DHT22;68671;50.084;8.794;2023-05-20T03:26:48;13.70;98.20
9847;DHT22;68671;50.084;8.794;2023-05-20T03:29:15;13.70;98.40
9847;DHT22;68671;50.084;8.794;2023-05-20T03:31:43;13.70;98.80
9847;DHT22;68671;50.084;8.794;2023-05-20T03:34:10;13.80;99.10
9847;DHT22;68671;50.084;8.794;2023-05-20T03:36:38;13.80;99.60
9847;DHT22;68671;50.084;8.794;2023-05-20T03:39:05;13.70;99.80
9847;DHT22;68671;50.084;8.794;2023-05-20T03:41:33;13.70;99.70
9847;DHT22;68671;50.084;8.794;2023-05-20T03:44:00;13.70;99.90
9847;DHT22;68671;50.084;8.794;2023-05-20T03:46:27;13.70;99.90
9847;DHT22;68671;50.084;8.794;2023-05-20T03:48:55;13.70;99.90
9847;DHT22;68671;50.084;8.794;2023-05-20T03:51:22;13.60;99.90
9847;DHT22;68671;50.084;8.794;2023-05-20T03:53:49;13.70;99.90
9847;DHT22;68671;50.084;8.794;2023-05-20T03:56:16;13.60;99.90
9847;DHT22;68671;50.084;8.794;2023-05-20T03:58:44;13.60;99.90
9847;DHT22;68671;50.084;8.794;2023-05-20T04:01:12;13.70;99.90
9847;DHT22;68671;50.084;8.794;2023-05-20T04:03:39;13.70;99.90
9847;DHT22;68671;50.084;8.794;2023-05-20T04:06:08;13.70;99.90
9847;DHT22;68671;50.084;8.794;2023-05-20T04:08:35;13.70;99.90
9847;DHT22;68671;50.084;8.794;2023-05-20T04:11:02;13.70;99.90
9847;DHT22;68671;50.084;8.794;2023-05-20T04:13:29;13.70;99.90
9847;DHT22;68671;50.084;8.794;2023-05-20T04:15:57;13.90;99.90
9847;DHT22;68671;50.084;8.794;2023-05-20T04:18:26;14.20;99.90
9847;DHT22;68671;50.084;8.794;2023-05-20T04:20:54;14.40;99.90
9847;DHT22;68671;50.084;8.794;2023-05-20T04:23:21;14.60;99.90
9847;DHT22;68671;50.084;8.794;2023-05-20T04:25:49;14.90;99.90
9847;DHT22;68671;50.084;8.794;2023-05-20T04:28:15;15.10;99.90
9847;DHT22;68671;50.084;8.794;2023-05-20T04:30:43;15.30;99.90
9847;DHT22;68671;50.084;8.794;2023-05-20T04:33:12;15.30;99.90
9847;DHT22;68671;50.084;8.794;2023-05-20T04:35:39;15.40;99.90
9847;DHT22;68671;50.084;8.794;2023-05-20T04:38:07;15.40;99.80
9847;DHT22;68671;50.084;8.794;2023-05-20T04:40:35;15.40;99.70
9847;DHT22;68671;50.084;8.794;2023-05-20T04:43:03;15.50;99.90
9847;DHT22;68671;50.084;8.794;2023-05-20T04:45:30;15.60;99.90
9847;DHT22;68671;50.084;8.794;2023-05-20T04:47:57;15.70;99.90
9847;DHT22;68671;50.084;8.794;2023-05-20T04:50:26;15.80;99.90
9847;DHT22;68671;50.084;8.794;2023-05-20T04:52:53;15.90;99.90
9847;DHT22;68671;50.084;8.794;2023-05-20T04:55:20;16.00;99.90
9847;DHT22;68671;50.084;8.794;2023-05-20T04:57:49;16.20;99.90
9847;DHT22;68671;50.084;8.794;2023-05-20T05:00:16;16.40;99.90
9847;DHT22;68671;50.084;8.794;2023-05-20T05:02:45;16.60;99.90
9847;DHT22;68671;50.084;8.794;2023-05-20T05:05:12;16.80;99.60
9847;DHT22;68671;50.084;8.794;2023-05-20T05:07:42;17.10;99.70
9847;DHT22;68671;50.084;8.794;2023-05-20T05:10:10;17.40;99.50
9847;DHT22;68671;50.084;8.794;2023-05-20T05:12:37;17.80;99.00
9847;DHT22;68671;50.084;8.794;2023-05-20T05:15:05;18.10;98.40
9847;DHT22;68671;50.084;8.794;2023-05-20T05:17:33;18.50;97.30
9847;DHT22;68671;50.084;8.794;2023-05-20T05:20:00;18.70;96.60
9847;DHT22;68671;50.084;8.794;2023-05-20T05:22:27;19.00;96.40
9847;DHT22;68671;50.084;8.794;2023-05-20T05:24:55;19.30;95.90
9847;DHT22;68671;50.084;8.794;2023-05-20T05:27:23;19.50;95.10
9847;DHT22;68671;50.084;8.794;2023-05-20T05:29:50;19.70;94.40
9847;DHT22;68671;50.084;8.794;2023-05-20T05:32:17;20.00;93.70
9847;DHT22;68671;50.084;8.794;2023-05-20T05:34:44;20.20;93.50
9847;DHT22;68671;50.084;8.794;2023-05-20T05:37:11;20.40;92.90
9847;DHT22;68671;50.084;8.794;2023-05-20T05:39:38;20.60;92.60
9847;DHT22;68671;50.084;8.794;2023-05-20T05:42:06;20.80;92.50
9847;DHT22;68671;50.084;8.794;2023-05-20T05:44:33;21.00;91.40
9847;DHT22;68671;50.084;8.794;2023-05-20T05:47:02;21.10;91.10
9847;DHT22;68671;50.084;8.794;2023-05-20T05:49:31;21.20;90.70
9847;DHT22;68671;50.084;8.794;2023-05-20T05:51:58;21.40;90.70
9847;DHT22;68671;50.084;8.794;2023-05-20T05:54:25;21.60;90.00
9847;DHT22;68671;50.084;8.794;2023-05-20T05:56:52;21.70;88.40
9847;DHT22;68671;50.084;8.794;2023-05-20T05:59:22;21.80;87.90
9847;DHT22;68671;50.084;8.794;2023-05-20T06:01:49;21.90;88.10
9847;DHT22;68671;50.084;8.794;2023-05-20T06:04:16;22.00;87.50
9847;DHT22;68671;50.084;8.794;2023-05-20T06:06:43;22.20;87.30
9847;DHT22;68671;50.084;8.794;2023-05-20T06:09:10;22.40;87.00
9847;DHT22;68671;50.084;8.794;2023-05-20T06:11:37;22.70;87.00
9847;DHT22;68671;50.084;8.794;2023-05-20T06:14:06;23.00;86.10
9847;DHT22;68671;50.084;8.794;2023-05-20T06:16:35;23.10;83.00
9847;DHT22;68671;50.084;8.794;2023-05-20T06:19:02;23.00;80.30
9847;DHT22;68671;50.084;8.794;2023-05-20T06:21:30;22.80;79.40
9847;DHT22;68671;50.084;8.794;2023-05-20T06:23:57;22.60;79.80
9847;DHT22;68671;50.084;8.794;2023-05-20T06:26:24;22.50;81.00
9847;DHT22;68671;50.084;8.794;2023-05-20T06:28:51;22.60;80.80
9847;DHT22;68671;50.084;8.794;2023-05-20T06:31:17;22.50;81.00
9847;DHT22;68671;50.084;8.794;2023-05-20T06:33:46;22.50;80.90
9847;DHT22;68671;50.084;8.794;2023-05-20T06:36:13;22.60;82.10
9847;DHT22;68671;50.084;8.794;2023-05-20T06:38:40;22.60;79.70
9847;DHT22;68671;50.084;8.794;2023-05-20T06:41:06;22.30;77.50
9847;DHT22;68671;50.084;8.794;2023-05-20T06:43:33;22.00;78.10
9847;DHT22;68671;50.084;8.794;2023-05-20T06:46:00;21.90;81.10
9847;DHT22;68671;50.084;8.794;2023-05-20T06:48:27;22.00;80.30
9847;DHT22;68671;50.084;8.794;2023-05-20T06:50:55;21.90;79.60
9847;DHT22;68671;50.084;8.794;2023-05-20T06:53:22;21.60;78.80
9847;DHT22;68671;50.084;8.794;2023-05-20T06:55:49;21.30;79.10
9847;DHT22;68671;50.084;8.794;2023-05-20T06:58:17;21.00;79.30
9847;DHT22;68671;50.084;8.794;2023-05-20T07:00:44;20.80;79.90
9847;DHT22;68671;50.084;8.794;2023-05-20T07:03:10;20.60;80.30
9847;DHT22;68671;50.084;8.794;2023-05-20T07:05:37;20.40;80.50
9847;DHT22;68671;50.084;8.794;2023-05-20T07:08:06;20.10;81.10
9847;DHT22;68671;50.084;8.794;2023-05-20T07:10:33;19.80;81.60
9847;DHT22;68671;50.084;8.794;2023-05-20T07:13:02;19.60;82.70
9847;DHT22;68671;50.084;8.794;2023-05-20T07:15:29;19.50;84.30
9847;DHT22;68671;50.084;8.794;2023-05-20T07:17:56;19.50;85.20
9847;DHT22;68671;50.084;8.794;2023-05-20T07:20:23;19.40;85.30
9847;DHT22;68671;50.084;8.794;2023-05-20T07:22:50;19.40;85.40
9847;DHT22;68671;50.084;8.794;2023-05-20T07:25:21;19.20;85.40
9847;DHT22;68671;50.084;8.794;2023-05-20T07:27:48;19.20;86.70
9847;DHT22;68671;50.084;8.794;2023-05-20T07:30:15;19.10;87.30
9847;DHT22;68671;50.084;8.794;2023-05-20T07:32:42;19.10;87.60
9847;DHT22;68671;50.084;8.794;2023-05-20T07:35:10;19.10;87.60
9847;DHT22;68671;50.084;8.794;2023-05-20T07:37:37;18.90;87.80
9847;DHT22;68671;50.084;8.794;2023-05-20T07:40:13;18.80;88.40
9847;DHT22;68671;50.084;8.794;2023-05-20T07:42:42;18.80;89.60
9847;DHT22;68671;50.084;8.794;2023-05-20T07:45:09;18.80;90.00
9847;DHT22;68671;50.084;8.794;2023-05-20T07:47:37;18.90;90.20
9847;DHT22;68671;50.084;8.794;2023-05-20T07:50:05;18.80;89.80
9847;DHT22;68671;50.084;8.794;2023-05-20T07:52:32;18.80;89.70
9847;DHT22;68671;50.084;8.794;2023-05-20T07:54:59;18.70;90.00
9847;DHT22;68671;50.084;8.794;2023-05-20T07:57:28;18.70;90.40
9847;DHT22;68671;50.084;8.794;2023-05-20T07:59:56;18.60;90.50
9847;DHT22;68671;50.084;8.794;2023-05-20T08:05:29;18.50;90.80
9847;DHT22;68671;50.084;8.794;2023-05-20T08:11:25;18.50;91.10
9847;DHT22;68671;50.084;8.794;2023-05-20T08:13:56;18.40;91.30
9847;DHT22;68671;50.084;8.794;2023-05-20T08:16:29;18.40;91.70
9847;DHT22;68671;50.084;8.794;2023-05-20T08:18:58;18.50;91.90
9847;DHT22;68671;50.084;8.794;2023-05-20T08:21:27;18.50;91.70
9847;DHT22;68671;50.084;8.794;2023-05-20T08:23:54;18.60;92.00
9847;DHT22;68671;50.084;8.794;2023-05-20T08:26:21;18.60;91.80
9847;DHT22;68671;50.084;8.794;2023-05-20T08:28:48;18.60;92.00
9847;DHT22;68671;50.084;8.794;2023-05-20T08:31:35;18.70;92.30
9847;DHT22;68671;50.084;8.794;2023-05-20T08:34:02;18.80;92.60
9847;DHT22;68671;50.084;8.794;2023-05-20T08:36:28;18.90;92.60
9847;DHT22;68671;50.084;8.794;2023-05-20T08:38:55;19.10;92.50
9847;DHT22;68671;50.084;8.794;2023-05-20T08:41:25;19.00;92.20
9847;DHT22;68671;50.084;8.794;2023-05-20T08:43:53;19.10;92.30
9847;DHT22;68671;50.084;8.794;2023-05-20T08:46:20;19.20;92.10
9847;DHT22;68671;50.084;8.794;2023-05-20T08:48:49;19.10;91.80
9847;DHT22;68671;50.084;8.794;2023-05-20T08:51:19;19.10;91.80
9847;DHT22;68671;50.084;8.794;2023-05-20T08:53:47;19.10;91.80
9847;DHT22;68671;50.084;8.794;2023-05-20T08:56:15;19.00;91.90
9847;DHT22;68671;50.084;8.794;2023-05-20T08:58:43;19.00;92.20
9847;DHT22;68671;50.084;8.794;2023-05-20T09:01:11;19.10;92.20
9847;DHT22;68671;50.084;8.794;2023-05-20T09:03:38;19.10;91.90
9847;DHT22;68671;50.084;8.794;2023-05-20T09:06:07;19.10;92.10
9847;DHT22;68671;50.084;8.794;2023-05-20T09:08:35;19.00;92.10
9847;DHT22;68671;50.084;8.794;2023-05-20T09:11:02;18.90;92.10
9847;DHT22;68671;50.084;8.794;2023-05-20T09:13:30;19.00;92.60
9847;DHT22;68671;50.084;8.794;2023-05-20T09:15:58;19.10;92.70
9847;DHT22;68671;50.084;8.794;2023-05-20T09:18:26;19.10;92.50
9847;DHT22;68671;50.084;8.794;2023-05-20T09:20:53;19.10;92.50
9847;DHT22;68671;50.084;8.794;2023-05-20T09:23:22;19.00;92.50
9847;DHT22;68671;50.084;8.794;2023-05-20T09:25:51;19.10;92.70
9847;DHT22;68671;50.084;8.794;2023-05-20T09:28:19;19.10;92.90
9847;DHT22;68671;50.084;8.794;2023-05-20T09:30:49;19.10;92.80
9847;DHT22;68671;50.084;8.794;2023-05-20T09:33:16;19.10;92.60
9847;DHT22;68671;50.084;8.794;2023-05-20T09:35:43;19.20;93.10
9847;DHT22;68671;50.084;8.794;2023-05-20T09:38:11;19.20;93.20
9847;DHT22;68671;50.084;8.794;2023-05-20T09:40:43;19.20;92.90
9847;DHT22;68671;50.084;8.794;2023-05-20T09:43:11;19.20;92.60
9847;DHT22;68671;50.084;8.794;2023-05-20T09:45:38;19.20;92.60
9847;DHT22;68671;50.084;8.794;2023-05-20T09:48:07;19.20;92.70
9847;DHT22;68671;50.084;8.794;2023-05-20T09:50:36;19.20;92.70
9847;DHT22;68671;50.084;8.794;2023-05-20T09:53:04;19.10;92.60
9847;DHT22;68671;50.084;8.794;2023-05-20T09:55:32;19.00;93.00
9847;DHT22;68671;50.084;8.794;2023-05-20T09:58:02;19.00;93.00
9847;DHT22;68671;50.084;8.794;2023-05-20T10:00:29;18.90;93.00
9847;DHT22;68671;50.084;8.794;2023-05-20T10:02:56;18.90;93.00
9847;DHT22;68671;50.084;8.794;2023-05-20T10:05:26;18.90;93.20
9847;DHT22;68671;50.084;8.794;2023-05-20T10:08:14;18.90;93.30
9847;DHT22;68671;50.084;8.794;2023-05-20T10:10:48;18.90;93.10
9847;DHT22;68671;50.084;8.794;2023-05-20T10:13:40;18.90;92.90
9847;DHT22;68671;50.084;8.794;2023-05-20T10:16:19;18.90;92.90
9847;DHT22;68671;50.084;8.794;2023-05-20T10:19:03;18.70;93.60
9847;DHT22;68671;50.084;8.794;2023-05-20T10:21:31;18.80;93.70
9847;DHT22;68671;50.084;8.794;2023-05-20T10:24:05;18.80;94.00
9847;DHT22;68671;50.084;8.794;2023-05-20T10:26:35;18.80;93.80
9847;DHT22;68671;50.084;8.794;2023-05-20T10:29:15;18.90;94.20
9847;DHT22;68671;50.084;8.794;2023-05-20T10:31:48;19.00;94.30
9847;DHT22;68671;50.084;8.794;2023-05-20T10:34:16;19.10;94.10
9847;DHT22;68671;50.084;8.794;2023-05-20T10:36:45;19.20;94.00
9847;DHT22;68671;50.084;8.794;2023-05-20T10:39:14;19.30;94.00
9847;DHT22;68671;50.084;8.794;2023-05-20T10:41:42;19.40;93.80
9847;DHT22;68671;50.084;8.794;2023-05-20T10:44:10;19.40;93.80
9847;DHT22;68671;50.084;8.794;2023-05-20T10:46:39;19.40;93.60
9847;DHT22;68671;50.084;8.794;2023-05-20T10:49:16;19.40;93.50
9847;DHT22;68671;50.084;8.794;2023-05-20T10:51:46;19.40;93.90
9847;DHT22;68671;50.084;8.794;2023-05-20T10:54:23;19.40;93.80
9847;DHT22;68671;50.084;8.794;2023-05-20T10:56:51;19.40;93.90
9847;DHT22;68671;50.084;8.794;2023-05-20T10:59:18;19.40;94.00
9847;DHT22;68671;50.084;8.794;2023-05-20T11:01:48;19.40;93.90
9847;DHT22;68671;50.084;8.794;2023-05-20T11:04:15;19.40;94.10
9847;DHT22;68671;50.084;8.794;2023-05-20T11:06:49;19.40;94.20
9847;DHT22;68671;50.084;8.794;2023-05-20T11:09:18;19.40;94.30
9847;DHT22;68671;50.084;8.794;2023-05-20T11:11:45;19.40;94.50
9847;DHT22;68671;50.084;8.794;2023-05-20T11:14:12;19.50;94.50
9847;DHT22;68671;50.084;8.794;2023-05-20T11:16:41;19.50;94.60
9847;DHT22;68671;50.084;8.794;2023-05-20T11:19:15;19.60;94.80
9847;DHT22;68671;50.084;8.794;2023-05-20T11:21:43;19.70;95.30
9847;DHT22;68671;50.084;8.794;2023-05-20T11:24:10;19.80;94.90
9847;DHT22;68671;50.084;8.794;2023-05-20T11:26:37;19.90;95.00
9847;DHT22;68671;50.084;8.794;2023-05-20T11:29:05;20.00;94.50
9847;DHT22;68671;50.084;8.794;2023-05-20T11:31:32;20.00;94.60
9847;DHT22;68671;50.084;8.794;2023-05-20T11:33:59;20.00;94.50
9847;DHT22;68671;50.084;8.794;2023-05-20T11:36:29;20.00;94.60
9847;DHT22;68671;50.084;8.794;2023-05-20T11:38:57;20.00;94.80
9847;DHT22;68671;50.084;8.794;2023-05-20T11:41:25;20.20;94.90
9847;DHT22;68671;50.084;8.794;2023-05-20T11:43:59;20.30;95.10
9847;DHT22;68671;50.084;8.794;2023-05-20T11:46:26;20.40;95.20
9847;DHT22;68671;50.084;8.794;2023-05-20T11:48:54;20.60;95.00
9847;DHT22;68671;50.084;8.794;2023-05-20T11:51:26;20.60;94.60
9847;DHT22;68671;50.084;8.794;2023-05-20T11:54:00;20.60;94.60
9847;DHT22;68671;50.084;8.794;2023-05-20T11:56:27;20.70;94.70
9847;DHT22;68671;50.084;8.794;2023-05-20T11:58:56;20.70;94.80
9847;DHT22;68671;50.084;8.794;2023-05-20T12:01:23;20.70;94.70
9847;DHT22;68671;50.084;8.794;2023-05-20T12:03:55;20.80;94.60
9847;DHT22;68671;50.084;8.794;2023-05-20T12:06:28;20.90;94.80
9847;DHT22;68671;50.084;8.794;2023-05-20T12:15:58;21.10;94.10
9847;DHT22;68671;50.084;8.794;2023-05-20T12:18:25;21.10;94.00
9847;DHT22;68671;50.084;8.794;2023-05-20T12:20:52;21.20;94.10
9847;DHT22;68671;50.084;8.794;2023-05-20T12:23:19;21.20;94.10
9847;DHT22;68671;50.084;8.794;2023-05-20T12:25:47;21.30;94.10
9847;DHT22;68671;50.084;8.794;2023-05-20T12:28:14;21.50;93.70
9847;DHT22;68671;50.084;8.794;2023-05-20T12:30:42;21.50;93.60
9847;DHT22;68671;50.084;8.794;2023-05-20T12:33:10;21.60;93.50
9847;DHT22;68671;50.084;8.794;2023-05-20T12:35:39;21.60;93.40
9847;DHT22;68671;50.084;8.794;2023-05-20T12:38:06;21.60;93.20
9847;DHT22;68671;50.084;8.794;2023-05-20T12:40:34;21.60;92.80
9847;DHT22;68671;50.084;8.794;2023-05-20T12:43:02;21.60;92.90
9847;DHT22;68671;50.084;8.794;2023-05-20T12:45:29;21.60;92.80
9847;DHT22;68671;50.084;8.794;2023-05-20T12:47:56;21.60;92.80
9847;DHT22;68671;50.084;8.794;2023-05-20T12:50:25;21.60;92.80
9847;DHT22;68671;50.084;8.794;2023-05-20T12:52:52;21.60;92.60
9847;DHT22;68671;50.084;8.794;2023-05-20T12:55:19;21.60;92.60
9847;DHT22;68671;50.084;8.794;2023-05-20T12:57:46;21.50;92.30
9847;DHT22;68671;50.084;8.794;2023-05-20T13:00:14;21.50;92.40
9847;DHT22;68671;50.084;8.794;2023-05-20T13:02:42;21.50;92.20
9847;DHT22;68671;50.084;8.794;2023-05-20T13:05:09;21.50;92.20
9847;DHT22;68671;50.084;8.794;2023-05-20T13:07:38;21.50;92.20
9847;DHT22;68671;50.084;8.794;2023-05-20T13:10:06;21.50;92.20
9847;DHT22;68671;50.084;8.794;2023-05-20T13:12:35;21.50;92.10
9847;DHT22;68671;50.084;8.794;2023-05-20T13:15:02;21.50;92.00
9847;DHT22;68671;50.084;8.794;2023-05-20T13:17:29;21.50;92.10
9847;DHT22;68671;50.084;8.794;2023-05-20T13:19:56;21.50;91.90
9847;DHT22;68671;50.084;8.794;2023-05-20T13:22:23;21.50;92.00
9847;DHT22;68671;50.084;8.794;2023-05-20T13:24:52;21.60;92.20
9847;DHT22;68671;50.084;8.794;2023-05-20T13:27:19;21.70;92.20
9847;DHT22;68671;50.084;8.794;2023-05-20T13:29:46;21.70;91.80
9847;DHT22;68671;50.084;8.794;2023-05-20T13:32:12;21.80;92.50
9847;DHT22;68671;50.084;8.794;2023-05-20T13:34:40;21.80;91.80
9847;DHT22;68671;50.084;8.794;2023-05-20T13:37:07;21.80;91.70
9847;DHT22;68671;50.084;8.794;2023-05-20T13:39:34;21.80;91.80
9847;DHT22;68671;50.084;8.794;2023-05-20T13:42:02;21.80;92.00
9847;DHT22;68671;50.084;8.794;2023-05-20T13:44:29;21.80;91.60
9847;DHT22;68671;50.084;8.794;2023-05-20T13:46:56;21.80;91.60
9847;DHT22;68671;50.084;8.794;2023-05-20T13:49:23;21.80;91.60
9847;DHT22;68671;50.084;8.794;2023-05-20T13:51:51;21.80;91.70
9847;DHT22;68671;50.084;8.794;2023-05-20T13:54:19;21.90;91.50
9847;DHT22;68671;50.084;8.794;2023-05-20T13:56:46;21.80;91.30
9847;DHT22;68671;50.084;8.794;2023-05-20T13:59:14;21.80;91.50
9847;DHT22;68671;50.084;8.794;2023-05-20T14:01:41;21.80;91.50
9847;DHT22;68671;50.084;8.794;2023-05-20T14:04:09;21.90;91.40
9847;DHT22;68671;50.084;8.794;2023-05-20T14:06:37;22.00;91.30
9847;DHT22;68671;50.084;8.794;2023-05-20T14:09:05;22.10;91.00
9847;DHT22;68671;50.084;8.794;2023-05-20T14:11:32;22.10;91.40
9847;DHT22;68671;50.084;8.794;2023-05-20T14:13:59;22.10;90.90
9847;DHT22;68671;50.084;8.794;2023-05-20T14:16:28;22.10;90.90
9847;DHT22;68671;50.084;8.794;2023-05-20T14:18:55;22.20;90.80
9847;DHT22;68671;50.084;8.794;2023-05-20T14:21:21;22.20;90.80
9847;DHT22;68671;50.084;8.794;2023-05-20T14:23:48;22.20;90.50
9847;DHT22;68671;50.084;8.794;2023-05-20T14:26:15;22.20;90.20
9847;DHT22;68671;50.084;8.794;2023-05-20T14:28:42;22.20;89.90
9847;DHT22;68671;50.084;8.794;2023-05-20T14:31:09;22.10;89.70
9847;DHT22;68671;50.084;8.794;2023-05-20T14:33:38;22.10;90.00
9847;DHT22;68671;50.084;8.794;2023-05-20T14:36:05;22.10;90.00
9847;DHT22;68671;50.084;8.794;2023-05-20T14:38:32;22.00;89.60
9847;DHT22;68671;50.084;8.794;2023-05-20T14:40:59;21.90;90.10
9847;DHT22;68671;50.084;8.794;2023-05-20T14:43:26;21.80;90.20
9847;DHT22;68671;50.084;8.794;2023-05-20T14:45:53;21.80;90.00
9847;DHT22;68671;50.084;8.794;2023-05-20T14:48:19;21.80;90.10
9847;DHT22;68671;50.084;8.794;2023-05-20T14:50:51;21.70;90.30
9847;DHT22;68671;50.084;8.794;2023-05-20T14:53:18;21.70;90.30
9847;DHT22;68671;50.084;8.794;2023-05-20T14:55:45;21.70;90.30
9847;DHT22;68671;50.084;8.794;2023-05-20T14:58:12;21.70;90.90
9847;DHT22;68671;50.084;8.794;2023-05-20T15:00:44;21.70;90.40
9847;DHT22;68671;50.084;8.794;2023-05-20T15:03:11;21.70;90.50
9847;DHT22;68671;50.084;8.794;2023-05-20T15:05:38;21.70;90.80
9847;DHT22;68671;50.084;8.794;2023-05-20T15:08:07;21.70;90.20
9847;DHT22;68671;50.084;8.794;2023-05-20T15:10:34;21.70;90.50
9847;DHT22;68671;50.084;8.794;2023-05-20T15:13:01;21.70;90.40
9847;DHT22;68671;50.084;8.794;2023-05-20T15:15:27;21.70;90.40
9847;DHT22;68671;50.084;8.794;2023-05-20T15:17:55;21.70;90.40
9847;DHT22;68671;50.084;8.794;2023-05-20T15:20:22;21.70;90.30
9847;DHT22;68671;50.084;8.794;2023-05-20T15:22:49;21.60;90.40
9847;DHT22;68671;50.084;8.794;2023-05-20T15:25:17;21.50;90.30
9847;DHT22;68671;50.084;8.794;2023-05-20T15:27:44;21.50;90.40
9847;DHT22;68671;50.084;8.794;2023-05-20T15:30:12;21.40;90.50
9847;DHT22;68671;50.084;8.794;2023-05-20T15:32:39;21.30;90.60
9847;DHT22;68671;50.084;8.794;2023-05-20T15:35:07;21.40;90.70
9847;DHT22;68671;50.084;8.794;2023-05-20T15:37:34;21.40;90.70
9847;DHT22;68671;50.084;8.794;2023-05-20T15:40:01;21.40;90.90
9847;DHT22;68671;50.084;8.794;2023-05-20T15:42:30;21.40;90.80
9847;DHT22;68671;50.084;8.794;2023-05-20T15:44:59;21.40;90.70
9847;DHT22;68671;50.084;8.794;2023-05-20T15:47:26;21.40;90.40
9847;DHT22;68671;50.084;8.794;2023-05-20T15:49:53;21.30;90.50
9847;DHT22;68671;50.084;8.794;2023-05-20T15:52:21;21.20;90.60
9847;DHT22;68671;50.084;8.794;2023-05-20T15:54:48;21.10;90.70
9847;DHT22;68671;50.084;8.794;2023-05-20T15:57:15;21.10;90.80
9847;DHT22;68671;50.084;8.794;2023-05-20T15:59:44;21.00;91.20
9847;DHT22;68671;50.084;8.794;2023-05-20T16:02:11;21.00;91.20
9847;DHT22;68671;50.084;8.794;2023-05-20T16:04:38;20.90;90.90